Time;durP1;ratioP1;P1;durP2;ratioP2;P2;SDS_P1;SDS_P2;PMS_P1;PMS_P2;Temp;Humidity;BMP_temperature;BMP_pressure;BME280_temperature;BME280_humidity;BME280_pressure;Samples;Min_cycle;Max_cycle;Signal;HPM_P1;HPM_P2
2023/04/13 00:01:34;;;;;;;3.53;3.22;;;11.40;99.90;;;;;;5072211;28;20228;-81
2023/04/13 00:04:03;;;;;;;10.57;5.47;;;11.40;99.90;;;;;;5072221;28;20213;-81
2023/04/13 00:06:32;;;;;;;4.88;4.35;;;11.40;99.90;;;;;;5071823;28;20221;-81
2023/04/13 00:09:06;;;;;;;5.68;3.85;;;11.40;99.90;;;;;;5071574;28;20213;-81
2023/04/13 00:11:34;;;;;;;7.88;4.18;;;11.40;99.90;;;;;;5071892;28;20226;-79
2023/04/13 00:14:05;;;;;;;5.03;4.28;;;11.40;99.90;;;;;;5072164;28;20208;-79
2023/04/13 00:16:34;;;;;;;4.22;3.83;;;11.40;99.90;;;;;;5072095;28;20215;-79
2023/04/13 00:19:02;;;;;;;5.40;4.13;;;11.40;99.90;;;;;;5071578;28;20251;-79
2023/04/13 00:21:32;;;;;;;7.97;4.63;;;11.40;99.90;;;;;;5071609;28;20236;-79
2023/04/13 00:24:01;;;;;;;6.28;4.45;;;11.40;99.90;;;;;;5073338;28;20213;-79
2023/04/13 00:26:29;;;;;;;9.25;5.50;;;11.40;99.90;;;;;;5075288;28;20221;-79
2023/04/13 00:28:57;;;;;;;6.03;4.32;;;11.50;99.90;;;;;;5075190;28;20213;-79
2023/04/13 00:31:29;;;;;;;4.72;4.15;;;11.50;99.90;;;;;;5075824;28;20225;-79
2023/04/13 00:34:00;;;;;;;7.35;5.20;;;11.50;99.90;;;;;;5074138;28;20208;-80
2023/04/13 00:36:28;;;;;;;3.85;3.35;;;11.50;99.90;;;;;;5075386;28;20204;-80
2023/04/13 00:38:57;;;;;;;7.18;4.38;;;11.50;99.90;;;;;;5075063;28;20215;-79
2023/04/13 00:41:26;;;;;;;4.72;3.53;;;11.40;99.90;;;;;;5075103;28;20231;-79
2023/04/13 00:43:57;;;;;;;3.42;3.15;;;11.40;99.90;;;;;;5075533;28;20205;-79
2023/04/13 00:46:30;;;;;;;5.28;4.30;;;11.40;99.90;;;;;;5075241;28;20229;-79
2023/04/13 00:49:00;;;;;;;4.30;3.40;;;11.40;99.90;;;;;;5074711;28;20209;-79
2023/04/13 00:51:29;;;;;;;5.20;3.47;;;11.40;99.90;;;;;;5074758;28;20225;-79
2023/04/13 00:53:59;;;;;;;2.90;2.70;;;11.40;99.90;;;;;;5075074;28;20217;-79
2023/04/13 00:56:28;;;;;;;4.30;3.47;;;11.40;99.90;;;;;;5074994;28;20204;-80
2023/04/13 00:58:56;;;;;;;21.95;4.40;;;11.40;99.90;;;;;;5074389;28;20205;-80
2023/04/13 01:01:25;;;;;;;4.10;3.72;;;11.30;99.90;;;;;;5075021;28;20241;-80
2023/04/13 01:03:55;;;;;;;6.32;4.05;;;11.30;99.90;;;;;;5074747;28;20260;-80
2023/04/13 01:06:32;;;;;;;3.88;3.58;;;11.30;99.90;;;;;;5074843;28;20201;-78
2023/04/13 01:09:07;;;;;;;4.70;3.75;;;11.20;99.90;;;;;;5074526;28;20235;-80
2023/04/13 01:11:41;;;;;;;4.07;3.63;;;11.30;99.90;;;;;;5074887;28;20234;-81
2023/04/13 01:14:17;;;;;;;4.32;3.92;;;11.20;99.90;;;;;;5074384;28;20228;-80
2023/04/13 01:16:51;;;;;;;3.92;3.55;;;11.20;99.90;;;;;;5074797;28;20199;-80
2023/04/13 01:19:31;;;;;;;5.35;3.28;;;11.20;99.90;;;;;;5074483;28;20217;-80
2023/04/13 01:22:01;;;;;;;4.15;3.85;;;11.20;99.90;;;;;;5074153;28;20228;-80
2023/04/13 01:24:42;;;;;;;4.97;3.97;;;11.20;99.90;;;;;;5074295;28;20216;-80
2023/04/13 01:27:15;;;;;;;3.13;2.92;;;11.20;99.90;;;;;;5074108;28;20228;-80
2023/04/13 01:29:47;;;;;;;5.28;4.72;;;11.20;99.90;;;;;;5075140;28;20206;-80
2023/04/13 01:32:16;;;;;;;3.78;3.30;;;11.20;99.90;;;;;;5074367;28;20229;-80
2023/04/13 01:34:45;;;;;;;8.20;4.35;;;11.20;99.90;;;;;;5072806;28;20201;-80
2023/04/13 01:37:15;;;;;;;5.05;3.00;;;11.20;99.90;;;;;;5074008;28;20201;-80
2023/04/13 01:39:44;;;;;;;3.83;2.72;;;11.20;99.90;;;;;;5074343;28;20209;-80
2023/04/13 01:42:12;;;;;;;3.28;2.00;;;11.10;99.90;;;;;;5074339;28;20236;-80
2023/04/13 01:44:41;;;;;;;2.55;2.05;;;11.00;99.90;;;;;;5074143;28;20212;-78
2023/04/13 01:47:19;;;;;;;2.50;2.30;;;11.00;99.90;;;;;;5073213;28;20232;-79
2023/04/13 01:49:52;;;;;;;3.95;2.42;;;11.00;99.90;;;;;;5074047;28;20205;-78
2023/04/13 01:52:22;;;;;;;1.90;1.80;;;11.00;99.90;;;;;;5074062;28;20255;-79
2023/04/13 01:54:52;;;;;;;1.77;1.67;;;11.00;99.90;;;;;;5074131;28;20207;-78
2023/04/13 01:57:21;;;;;;;6.68;2.22;;;10.90;99.90;;;;;;5073665;28;20208;-78
2023/04/13 01:59:49;;;;;;;2.15;1.70;;;10.90;99.90;;;;;;5073774;28;20205;-78
2023/04/13 02:02:19;;;;;;;2.70;1.75;;;10.80;99.90;;;;;;5073661;28;20240;-79
2023/04/13 02:04:48;;;;;;;1.77;1.67;;;10.80;99.90;;;;;;5073470;28;20205;-78
2023/04/13 02:07:16;;;;;;;1.90;1.75;;;10.70;99.90;;;;;;5072897;28;20221;-79
2023/04/13 02:09:45;;;;;;;2.25;2.15;;;10.60;99.90;;;;;;5073736;28;20201;-78
2023/04/13 02:12:13;;;;;;;3.42;2.13;;;10.60;99.90;;;;;;5073496;28;20224;-78
2023/04/13 02:14:42;;;;;;;1.90;1.67;;;10.50;99.90;;;;;;5073406;28;20213;-78
2023/04/13 02:17:10;;;;;;;2.28;2.08;;;10.40;99.90;;;;;;5073370;28;20205;-78
2023/04/13 02:19:40;;;;;;;3.85;2.08;;;10.40;99.90;;;;;;5073245;28;20212;-78
2023/04/13 02:22:08;;;;;;;3.00;2.17;;;10.40;99.90;;;;;;5073460;28;20231;-78
2023/04/13 02:24:37;;;;;;;3.83;2.40;;;10.40;99.90;;;;;;5073037;28;20220;-80
2023/04/13 02:27:06;;;;;;;2.85;2.60;;;10.30;99.90;;;;;;5072836;28;20252;-79
2023/04/13 02:29:34;;;;;;;2.15;2.05;;;10.30;99.90;;;;;;5073288;28;20205;-78
2023/04/13 02:32:03;;;;;;;2.28;2.08;;;10.30;99.90;;;;;;5073069;28;20232;-79
2023/04/13 02:34:32;;;;;;;3.10;2.80;;;10.20;99.90;;;;;;5072163;28;20268;-78
2023/04/13 02:37:08;;;;;;;7.15;2.53;;;10.20;99.90;;;;;;5072935;28;20286;-78
2023/04/13 02:39:39;;;;;;;2.17;2.08;;;10.20;99.90;;;;;;5073160;28;20205;-78
2023/04/13 02:42:07;;;;;;;3.10;2.80;;;10.20;99.90;;;;;;5072971;28;20310;-79
2023/04/13 02:44:37;;;;;;;2.90;2.70;;;10.20;99.90;;;;;;5073141;28;20209;-79
2023/04/13 02:47:06;;;;;;;5.03;3.38;;;10.10;99.90;;;;;;5071816;28;20229;-78
2023/04/13 02:49:34;;;;;;;4.75;4.03;;;10.00;99.90;;;;;;5072334;28;20221;-80
2023/04/13 02:52:06;;;;;;;4.35;3.95;;;10.00;99.90;;;;;;5072671;28;20232;-79
2023/04/13 02:54:35;;;;;;;5.75;4.75;;;10.00;99.90;;;;;;5073073;28;20197;-78
2023/04/13 02:57:03;;;;;;;5.18;4.70;;;10.00;99.90;;;;;;5072617;28;20216;-78
2023/04/13 02:59:32;;;;;;;4.97;4.55;;;10.00;99.90;;;;;;5072527;28;20229;-79
2023/04/13 03:02:01;;;;;;;5.10;4.57;;;9.90;99.90;;;;;;5072898;28;20239;-79
2023/04/13 03:04:30;;;;;;;6.88;6.05;;;9.90;99.90;;;;;;5072728;28;20219;-80
2023/04/13 03:06:58;;;;;;;5.57;5.07;;;9.90;99.90;;;;;;5072293;28;20212;-79
2023/04/13 03:09:29;;;;;;;5.38;4.97;;;9.90;99.90;;;;;;5072148;28;20225;-79
2023/04/13 03:11:58;;;;;;;7.00;6.32;;;9.90;99.90;;;;;;5072613;28;20228;-79
2023/04/13 03:14:28;;;;;;;8.30;6.35;;;9.80;99.90;;;;;;5072926;28;20219;-79
2023/04/13 03:16:57;;;;;;;6.15;5.65;;;9.80;99.90;;;;;;5072372;28;20296;-80
2023/04/13 03:19:25;;;;;;;6.20;5.60;;;9.80;99.90;;;;;;5072835;28;20215;-79
2023/04/13 03:21:54;;;;;;;6.80;6.00;;;9.70;99.90;;;;;;5072879;28;20220;-79
2023/04/13 03:24:27;;;;;;;6.85;6.18;;;9.70;99.90;;;;;;5072341;28;20205;-79
2023/04/13 03:26:58;;;;;;;5.78;5.30;;;9.70;99.90;;;;;;5072177;28;20220;-79
2023/04/13 03:29:28;;;;;;;8.48;6.32;;;9.70;99.90;;;;;;5072558;28;20228;-80
2023/04/13 03:31:57;;;;;;;6.65;5.60;;;9.70;99.90;;;;;;5072404;28;20228;-79
2023/04/13 03:34:26;;;;;;;7.65;6.13;;;9.70;99.90;;;;;;5071176;28;20265;-80
2023/04/13 03:36:57;;;;;;;6.88;6.18;;;9.60;99.90;;;;;;5071701;28;20212;-79
2023/04/13 03:39:26;;;;;;;7.53;5.43;;;9.70;99.90;;;;;;5072455;28;20205;-80
2023/04/13 03:41:54;;;;;;;5.97;5.47;;;9.60;99.90;;;;;;5072498;28;20232;-79
2023/04/13 03:44:25;;;;;;;5.80;5.30;;;9.60;99.90;;;;;;5072370;28;20236;-79
2023/04/13 03:46:54;;;;;;;6.07;5.47;;;9.60;99.90;;;;;;5071778;28;20212;-80
2023/04/13 03:49:25;;;;;;;6.78;6.13;;;9.60;99.90;;;;;;5071721;28;20232;-79
2023/04/13 03:51:53;;;;;;;5.82;5.40;;;9.60;99.90;;;;;;5072352;28;20227;-80
2023/04/13 03:54:21;;;;;;;7.28;6.55;;;9.70;99.90;;;;;;5072634;28;20209;-80
2023/04/13 03:56:50;;;;;;;6.60;5.93;;;9.60;99.90;;;;;;5071841;28;20205;-80
2023/04/13 03:59:18;;;;;;;5.53;5.03;;;9.60;99.90;;;;;;5075751;28;20205;-80
2023/04/13 04:01:48;;;;;;;5.57;5.07;;;9.70;99.90;;;;;;5075549;28;20229;-81
2023/04/13 04:04:16;;;;;;;6.47;5.88;;;9.60;99.90;;;;;;5076021;28;20236;-81
2023/04/13 04:06:45;;;;;;;5.25;4.88;;;9.60;99.90;;;;;;5075801;28;20225;-81
2023/04/13 04:09:13;;;;;;;5.57;5.07;;;9.60;99.90;;;;;;5076125;28;20228;-81
2023/04/13 04:11:42;;;;;;;7.30;5.78;;;9.60;99.90;;;;;;5075935;28;20227;-81
2023/04/13 04:14:10;;;;;;;5.47;4.97;;;9.60;99.90;;;;;;5075243;28;20201;-81
2023/04/13 04:16:38;;;;;;;6.97;6.30;;;9.60;99.90;;;;;;5075934;28;20209;-81
2023/04/13 04:19:08;;;;;;;7.35;6.60;;;9.70;99.90;;;;;;5075903;28;20205;-83
2023/04/13 04:21:36;;;;;;;6.53;5.93;;;9.70;99.90;;;;;;5075635;28;20296;-81
2023/04/13 04:24:07;;;;;;;6.50;5.90;;;9.70;99.90;;;;;;5075900;28;20201;-82
2023/04/13 04:26:39;;;;;;;5.80;5.30;;;9.70;99.90;;;;;;5075234;28;20209;-81
2023/04/13 04:29:08;;;;;;;9.32;6.03;;;9.70;99.90;;;;;;5074977;28;20247;-81
2023/04/13 04:31:42;;;;;;;7.88;4.70;;;9.70;99.90;;;;;;5075527;28;20262;-81
2023/04/13 04:34:12;;;;;;;4.47;4.05;;;9.80;99.90;;;;;;5075358;28;20262;-80
2023/04/13 04:36:44;;;;;;;3.97;3.67;;;9.70;99.90;;;;;;5074879;28;20212;-80
2023/04/13 04:39:13;;;;;;;4.22;3.92;;;9.70;99.90;;;;;;5075402;28;20288;-81
2023/04/13 04:41:42;;;;;;;3.70;3.40;;;9.70;99.90;;;;;;5075347;28;20251;-80
2023/04/13 04:44:11;;;;;;;3.47;3.25;;;9.60;99.90;;;;;;5075190;28;20209;-80
2023/04/13 04:46:40;;;;;;;4.25;3.85;;;9.60;99.90;;;;;;5075440;28;20205;-80
2023/04/13 04:49:12;;;;;;;3.00;2.80;;;9.60;99.90;;;;;;5075155;28;20235;-80
2023/04/13 04:51:42;;;;;;;3.08;2.88;;;9.60;99.90;;;;;;5075028;28;20286;-80
2023/04/13 04:54:11;;;;;;;3.80;3.50;;;9.60;99.90;;;;;;5075038;28;20197;-80
2023/04/13 04:56:39;;;;;;;3.40;3.20;;;9.50;99.90;;;;;;5074833;28;20220;-80
2023/04/13 04:59:07;;;;;;;2.95;2.75;;;9.50;99.90;;;;;;5075079;28;20211;-80
2023/04/13 05:01:35;;;;;;;3.72;3.42;;;9.60;99.90;;;;;;5074883;28;20236;-80
2023/04/13 05:04:04;;;;;;;3.70;3.40;;;9.50;99.90;;;;;;5075120;28;20205;-81
2023/04/13 05:06:33;;;;;;;3.20;3.00;;;9.50;99.90;;;;;;5074559;28;20219;-81
2023/04/13 05:09:04;;;;;;;2.40;2.28;;;9.50;99.90;;;;;;5073680;28;20225;-81
2023/04/13 05:11:36;;;;;;;2.22;2.10;;;9.50;99.90;;;;;;5074868;28;20233;-81
2023/04/13 05:14:04;;;;;;;2.78;2.55;;;9.50;99.90;;;;;;5075029;28;20220;-81
2023/04/13 05:16:32;;;;;;;2.03;1.92;;;9.50;99.90;;;;;;5074716;28;20205;-80
2023/04/13 05:19:04;;;;;;;3.38;2.90;;;9.50;99.90;;;;;;5074227;28;20300;-80
2023/04/13 05:21:32;;;;;;;2.22;2.13;;;9.50;99.90;;;;;;5074924;28;20239;-80
2023/04/13 05:24:03;;;;;;;1.85;1.75;;;9.40;99.90;;;;;;5074218;28;20212;-79
2023/04/13 05:26:34;;;;;;;2.75;2.08;;;9.40;99.90;;;;;;5074447;28;20209;-80
2023/04/13 05:29:06;;;;;;;1.58;1.48;;;9.30;99.90;;;;;;5073812;28;20240;-80
2023/04/13 05:31:38;;;;;;;1.90;1.80;;;9.30;99.90;;;;;;5074556;28;20221;-80
2023/04/13 05:34:06;;;;;;;2.25;2.05;;;9.30;99.90;;;;;;5073840;28;20208;-80
2023/04/13 05:36:38;;;;;;;2.17;2.00;;;9.30;99.90;;;;;;5074028;28;20204;-79
2023/04/13 05:39:09;;;;;;;1.45;1.35;;;9.30;99.90;;;;;;5074453;28;20205;-79
2023/04/13 05:41:38;;;;;;;1.55;1.45;;;9.40;99.90;;;;;;5074394;28;20225;-80
2023/04/13 05:44:06;;;;;;;2.05;1.80;;;9.30;99.90;;;;;;5074649;28;20209;-80
2023/04/13 05:46:35;;;;;;;2.00;1.85;;;9.30;99.90;;;;;;5074324;28;20211;-80
2023/04/13 05:49:03;;;;;;;1.38;1.27;;;9.30;99.90;;;;;;5073200;28;20216;-80
2023/04/13 05:51:32;;;;;;;2.63;1.55;;;9.30;99.90;;;;;;5074111;28;20293;-80
2023/04/13 05:54:02;;;;;;;1.45;1.35;;;9.20;99.90;;;;;;5074427;28;20212;-81
2023/04/13 05:56:33;;;;;;;1.70;1.60;;;9.20;99.90;;;;;;5074061;28;20211;-81
2023/04/13 05:59:01;;;;;;;2.13;1.92;;;9.20;99.90;;;;;;5073563;28;20213;-81
2023/04/13 06:01:30;;;;;;;1.40;1.30;;;9.20;99.90;;;;;;5073775;28;20248;-81
2023/04/13 06:03:59;;;;;;;1.55;1.35;;;9.20;99.90;;;;;;5074061;28;20236;-81
2023/04/13 06:06:29;;;;;;;1.33;1.30;;;9.20;99.90;;;;;;5074243;28;20223;-81
2023/04/13 06:08:57;;;;;;;1.50;1.40;;;9.20;99.90;;;;;;5073355;28;20262;-81
2023/04/13 06:11:26;;;;;;;1.10;1.10;;;9.20;99.90;;;;;;5073386;28;20224;-81
2023/04/13 06:13:56;;;;;;;1.02;1.02;;;9.10;99.90;;;;;;5073538;28;20205;-81
2023/04/13 06:16:27;;;;;;;1.33;1.23;;;9.10;99.90;;;;;;5074079;28;20209;-81
2023/04/13 06:18:55;;;;;;;5.35;0.90;;;9.10;99.90;;;;;;5073673;28;20296;-81
2023/04/13 06:21:24;;;;;;;1.00;0.95;;;9.10;99.90;;;;;;5073433;28;20236;-81
2023/04/13 06:23:53;;;;;;;1.33;1.20;;;9.10;99.90;;;;;;5073515;28;20205;-81
2023/04/13 06:26:21;;;;;;;0.95;0.95;;;9.10;99.90;;;;;;5073117;28;20212;-81
2023/04/13 06:28:52;;;;;;;1.70;1.40;;;9.10;99.90;;;;;;5072585;28;20201;-81
2023/04/13 06:31:22;;;;;;;1.27;1.17;;;9.10;99.90;;;;;;5073300;28;20229;-81
2023/04/13 06:33:50;;;;;;;1.20;1.10;;;9.20;99.90;;;;;;5072448;28;20256;-81
2023/04/13 06:36:18;;;;;;;1.17;1.15;;;9.10;99.90;;;;;;5073239;28;20211;-81
2023/04/13 06:38:46;;;;;;;1.48;1.38;;;9.10;99.90;;;;;;5072655;28;20212;-81
2023/04/13 06:41:17;;;;;;;1.20;1.20;;;9.10;99.90;;;;;;5073304;28;20290;-80
2023/04/13 06:43:46;;;;;;;0.80;0.80;;;9.00;99.90;;;;;;5073380;28;20264;-80
2023/04/13 06:46:17;;;;;;;1.13;1.08;;;9.00;99.90;;;;;;5073094;28;20260;-80
2023/04/13 06:48:49;;;;;;;1.17;1.15;;;9.00;99.90;;;;;;5072370;28;20209;-81
2023/04/13 06:51:17;;;;;;;0.80;0.80;;;9.00;99.90;;;;;;5072610;28;20228;-80
2023/04/13 06:53:46;;;;;;;0.82;0.65;;;8.90;99.90;;;;;;5073112;28;20209;-80
2023/04/13 06:56:14;;;;;;;0.70;0.70;;;8.90;99.90;;;;;;5072867;28;20213;-80
2023/04/13 06:58:44;;;;;;;0.95;0.95;;;8.90;99.90;;;;;;5072435;28;20201;-80
2023/04/13 07:01:12;;;;;;;0.70;0.70;;;8.90;99.90;;;;;;5072722;28;20225;-79
2023/04/13 07:03:40;;;;;;;2.15;0.93;;;8.90;99.90;;;;;;5072678;28;20209;-80
2023/04/13 07:06:10;;;;;;;0.90;0.90;;;9.00;99.90;;;;;;5072509;28;20205;-80
2023/04/13 07:08:38;;;;;;;1.42;1.08;;;8.90;99.90;;;;;;5072389;28;20213;-80
2023/04/13 07:11:08;;;;;;;1.27;1.17;;;8.90;99.90;;;;;;5072651;28;20237;-80
2023/04/13 07:13:37;;;;;;;1.15;1.15;;;9.00;99.90;;;;;;5072227;28;20217;-80
2023/04/13 07:16:08;;;;;;;0.63;0.63;;;9.00;99.90;;;;;;5072721;28;20296;-80
2023/04/13 07:18:36;;;;;;;0.90;0.90;;;9.00;99.90;;;;;;5072391;28;20217;-79
2023/04/13 07:21:06;;;;;;;1.35;0.90;;;9.00;99.90;;;;;;5072298;28;20210;-79
2023/04/13 07:23:35;;;;;;;1.23;1.13;;;9.00;99.90;;;;;;5072776;28;20205;-80
2023/04/13 07:26:04;;;;;;;0.77;0.77;;;9.00;99.90;;;;;;5072666;28;20207;-79
2023/04/13 07:28:32;;;;;;;1.10;1.00;;;9.00;99.90;;;;;;5072414;28;20213;-79
2023/04/13 07:31:01;;;;;;;1.48;1.38;;;9.10;99.90;;;;;;5072171;28;20220;-78
2023/04/13 07:33:30;;;;;;;0.82;0.82;;;9.00;99.90;;;;;;5076535;28;20200;-78
2023/04/13 07:35:59;;;;;;;1.63;1.40;;;9.10;99.90;;;;;;5078873;28;20215;-79
2023/04/13 07:38:27;;;;;;;1.40;1.30;;;9.10;99.90;;;;;;5078752;28;20205;-80
2023/04/13 07:40:57;;;;;;;1.50;1.40;;;9.10;99.90;;;;;;5078606;28;20205;-80
2023/04/13 07:43:25;;;;;;;1.95;1.83;;;9.10;99.90;;;;;;5079228;28;20215;-78
2023/04/13 07:45:53;;;;;;;1.63;1.52;;;9.20;99.90;;;;;;5079023;28;20209;-79
2023/04/13 07:48:22;;;;;;;1.10;1.10;;;9.20;99.90;;;;;;5078436;28;20264;-79
2023/04/13 07:50:50;;;;;;;1.58;1.48;;;9.20;99.90;;;;;;5078769;28;20235;-79
2023/04/13 07:53:18;;;;;;;1.63;1.48;;;9.20;99.90;;;;;;5078966;28;20209;-79
2023/04/13 07:55:47;;;;;;;1.60;1.50;;;9.20;99.90;;;;;;5079078;28;20207;-79
2023/04/13 07:58:16;;;;;;;0.90;0.90;;;9.30;99.90;;;;;;5078619;28;20215;-80
2023/04/13 08:00:45;;;;;;;1.23;1.13;;;9.30;99.90;;;;;;5079235;28;20205;-80
2023/04/13 08:03:13;;;;;;;1.13;0.95;;;9.10;99.90;;;;;;5079021;28;20232;-80
2023/04/13 08:05:41;;;;;;;0.80;0.80;;;9.10;99.90;;;;;;5079344;28;20212;-80
2023/04/13 08:08:13;;;;;;;0.70;0.70;;;9.00;99.90;;;;;;5078483;28;20209;-80
2023/04/13 08:10:41;;;;;;;0.95;0.95;;;9.00;99.90;;;;;;5078687;28;20220;-80
2023/04/13 08:13:11;;;;;;;1.63;1.52;;;8.90;99.90;;;;;;5061109;28;20278;-78
2023/04/13 08:15:40;;;;;;;3.25;1.10;;;8.90;99.90;;;;;;5078942;28;20212;-79
2023/04/13 08:18:08;;;;;;;0.93;0.93;;;8.90;99.90;;;;;;5078485;28;20212;-79
2023/04/13 08:20:37;;;;;;;0.98;0.98;;;8.90;99.90;;;;;;5078600;28;20215;-80
2023/04/13 08:23:05;;;;;;;1.55;1.40;;;8.80;99.90;;;;;;5078574;28;20225;-80
2023/04/13 08:25:41;;;;;;;1.70;1.60;;;8.80;99.90;;;;;;5078789;28;20211;-80
2023/04/13 08:28:10;;;;;;;1.42;1.33;;;8.90;99.90;;;;;;5077998;28;20216;-79
2023/04/13 08:30:38;;;;;;;1.60;1.50;;;8.80;99.90;;;;;;5078900;28;20220;-80
2023/04/13 08:33:08;;;;;;;1.60;1.50;;;8.90;99.90;;;;;;5077909;28;20332;-79
2023/04/13 08:35:38;;;;;;;1.70;1.40;;;8.90;99.90;;;;;;5078582;28;20213;-79
2023/04/13 08:38:09;;;;;;;1.40;1.30;;;8.90;99.90;;;;;;5078217;28;20205;-79
2023/04/13 08:40:39;;;;;;;1.65;1.55;;;9.00;99.90;;;;;;5078206;28;20211;-79
2023/04/13 08:43:07;;;;;;;1.30;1.20;;;9.10;99.90;;;;;;5078488;28;20235;-79
2023/04/13 08:45:36;;;;;;;1.27;1.17;;;9.10;99.90;;;;;;5074410;28;20201;-79
2023/04/13 08:48:04;;;;;;;0.82;0.82;;;9.20;99.90;;;;;;5074819;28;20243;-79
2023/04/13 08:50:36;;;;;;;1.13;1.13;;;9.10;99.90;;;;;;5075377;28;20201;-79
2023/04/13 08:53:05;;;;;;;1.35;1.25;;;9.30;99.90;;;;;;5075058;28;20250;-79
2023/04/13 08:55:33;;;;;;;1.00;1.00;;;9.30;99.90;;;;;;5075169;28;20205;-79
2023/04/13 08:58:04;;;;;;;0.90;0.90;;;9.30;99.90;;;;;;5074966;28;20252;-80
2023/04/13 09:00:35;;;;;;;1.38;1.27;;;9.30;99.90;;;;;;5075161;28;20215;-81
2023/04/13 09:03:05;;;;;;;0.70;0.70;;;9.30;99.90;;;;;;5074990;28;20231;-81
2023/04/13 09:05:40;;;;;;;1.20;1.10;;;9.20;99.90;;;;;;5075253;28;20209;-81
2023/04/13 09:08:12;;;;;;;1.10;1.10;;;9.10;99.90;;;;;;5074387;28;20292;-81
2023/04/13 09:10:41;;;;;;;0.82;0.82;;;9.10;99.90;;;;;;5074864;28;20292;-81
2023/04/13 09:13:09;;;;;;;0.60;0.60;;;9.00;99.90;;;;;;5074766;28;20237;-81
2023/04/13 09:15:37;;;;;;;0.90;0.88;;;8.90;99.90;;;;;;5075035;28;20224;-81
2023/04/13 09:18:09;;;;;;;0.85;0.85;;;8.90;99.90;;;;;;5074830;28;20208;-81
2023/04/13 09:20:40;;;;;;;1.02;1.02;;;9.00;99.90;;;;;;5074776;28;20300;-81
2023/04/13 09:23:15;;;;;;;1.80;1.58;;;9.20;99.90;;;;;;5074792;28;20228;-81
2023/04/13 09:25:45;;;;;;;1.10;1.08;;;9.30;99.90;;;;;;5075341;28;20208;-81
2023/04/13 09:28:17;;;;;;;1.05;1.05;;;9.50;99.90;;;;;;5074161;28;20292;-81
2023/04/13 09:30:46;;;;;;;0.52;0.52;;;9.60;99.90;;;;;;5074594;28;20238;-81
2023/04/13 09:33:15;;;;;;;0.70;0.70;;;9.60;99.90;;;;;;5073652;28;20225;-81
2023/04/13 09:35:45;;;;;;;0.85;0.85;;;9.70;99.90;;;;;;5074700;28;20208;-81
2023/04/13 09:38:16;;;;;;;0.88;0.88;;;9.70;99.90;;;;;;5074080;28;20283;-81
2023/04/13 09:40:53;;;;;;;0.90;0.90;;;9.70;99.90;;;;;;5074257;28;20201;-81
2023/04/13 09:43:21;;;;;;;0.75;0.75;;;9.70;99.90;;;;;;5074348;28;20200;-79
2023/04/13 09:45:50;;;;;;;0.75;0.75;;;9.60;99.90;;;;;;5074218;28;20197;-79
2023/04/13 09:48:22;;;;;;;0.90;0.90;;;9.60;99.90;;;;;;5073649;28;20216;-80
2023/04/13 09:51:04;;;;;;;1.02;1.02;;;9.70;99.90;;;;;;5075181;28;20205;-81
2023/04/13 09:53:41;;;;;;;1.20;1.20;;;9.80;99.90;;;;;;5074408;28;20197;-80
2023/04/13 09:56:10;;;;;;;4.88;1.67;;;9.80;99.90;;;;;;5073613;28;20231;-80
2023/04/13 09:58:44;;;;;;;0.93;0.93;;;9.90;99.90;;;;;;5073360;28;20208;-80
2023/04/13 10:01:13;;;;;;;1.25;1.15;;;9.80;99.90;;;;;;5073908;28;20228;-80
2023/04/13 10:03:43;;;;;;;1.27;1.17;;;9.80;99.90;;;;;;5074109;28;20270;-80
2023/04/13 10:06:13;;;;;;;1.27;1.17;;;9.90;99.90;;;;;;5073978;28;20220;-80
2023/04/13 10:08:42;;;;;;;0.80;0.80;;;10.00;99.90;;;;;;5073541;28;20208;-79
2023/04/13 10:11:13;;;;;;;1.20;1.10;;;10.00;99.90;;;;;;5073552;28;20200;-80
2023/04/13 10:13:52;;;;;;;0.85;0.85;;;10.10;99.90;;;;;;5073562;28;20231;-80
2023/04/13 10:17:08;;;;;;;0.93;0.93;;;10.20;99.90;;;;;;5073526;28;20213;-80
2023/04/13 10:19:41;;;;;;;2.28;1.10;;;10.30;99.90;;;;;;5060631;28;20260;-80
2023/04/13 10:22:15;;;;;;;1.00;1.00;;;10.30;99.90;;;;;;5073449;28;20232;-80
2023/04/13 10:24:44;;;;;;;1.33;1.23;;;10.40;99.90;;;;;;5073900;28;20201;-80
2023/04/13 10:27:15;;;;;;;1.00;1.00;;;10.50;99.90;;;;;;5073061;28;20208;-80
2023/04/13 10:29:44;;;;;;;1.70;1.60;;;10.40;99.90;;;;;;5073570;28;20254;-80
2023/04/13 10:32:21;;;;;;;1.27;1.17;;;10.40;99.90;;;;;;5073475;28;20229;-80
2023/04/13 10:34:50;;;;;;;0.90;0.90;;;10.30;99.90;;;;;;5072933;28;20208;-79
2023/04/13 10:37:23;;;;;;;1.55;1.45;;;10.20;99.90;;;;;;5072794;28;20217;-79
2023/04/13 10:40:04;;;;;;;1.35;1.25;;;9.90;99.90;;;;;;5073425;28;20212;-79
2023/04/13 10:42:40;;;;;;;1.15;1.13;;;9.90;99.90;;;;;;5073195;28;20305;-79
2023/04/13 10:45:22;;;;;;;1.00;1.00;;;9.90;99.90;;;;;;5073513;28;20217;-79
2023/04/13 10:47:51;;;;;;;1.40;1.30;;;9.70;99.90;;;;;;5072447;28;20205;-79
2023/04/13 10:50:21;;;;;;;1.15;1.15;;;9.70;99.90;;;;;;5073043;28;20211;-79
2023/04/13 10:52:59;;;;;;;1.42;1.33;;;9.70;99.90;;;;;;5073738;28;20221;-80
2023/04/13 10:55:27;;;;;;;1.40;1.40;;;9.80;99.90;;;;;;5072890;28;20201;-80
2023/04/13 10:57:56;;;;;;;1.25;1.15;;;9.80;99.90;;;;;;5072712;28;20212;-79
2023/04/13 11:00:24;;;;;;;1.45;1.35;;;9.80;99.90;;;;;;5072816;28;20208;-80
2023/04/13 11:03:13;;;;;;;1.48;1.38;;;9.70;99.90;;;;;;5072761;28;20240;-80
2023/04/13 11:05:43;;;;;;;1.42;1.33;;;9.80;99.90;;;;;;5072765;28;20213;-79
2023/04/13 11:08:19;;;;;;;1.30;1.20;;;9.80;99.90;;;;;;5071548;28;20296;-79
2023/04/13 11:10:52;;;;;;;2.08;1.88;;;9.80;99.90;;;;;;5072957;28;20217;-79
2023/04/13 11:13:20;;;;;;;1.65;1.55;;;9.80;99.90;;;;;;5072467;28;20224;-79
2023/04/13 11:15:50;;;;;;;1.40;1.30;;;9.70;99.90;;;;;;5072445;28;20208;-79
2023/04/13 11:18:25;;;;;;;1.52;1.42;;;9.70;99.90;;;;;;5072058;28;20209;-78
2023/04/13 11:20:55;;;;;;;1.60;1.50;;;9.70;99.90;;;;;;5072821;28;20215;-78
2023/04/13 11:23:24;;;;;;;1.13;1.13;;;9.70;99.90;;;;;;5072800;28;20201;-78
2023/04/13 11:25:54;;;;;;;1.85;1.58;;;9.70;99.90;;;;;;5072666;28;20243;-78
2023/04/13 11:28:26;;;;;;;1.23;1.13;;;9.70;99.90;;;;;;5072016;28;20196;-78
2023/04/13 11:30:55;;;;;;;1.33;1.23;;;9.70;99.90;;;;;;5072357;28;20209;-78
2023/04/13 11:33:25;;;;;;;1.02;1.02;;;9.70;99.90;;;;;;5071706;28;20225;-78
2023/04/13 11:35:55;;;;;;;1.60;1.50;;;9.80;99.90;;;;;;5072827;28;20237;-78
2023/04/13 11:38:26;;;;;;;2.95;1.45;;;9.70;99.90;;;;;;5072041;28;20212;-79
2023/04/13 11:41:01;;;;;;;1.17;1.13;;;9.60;99.90;;;;;;5072081;28;20205;-79
2023/04/13 11:43:35;;;;;;;1.35;1.10;;;9.60;99.90;;;;;;5072656;28;20213;-79
2023/04/13 11:46:03;;;;;;;1.67;1.58;;;9.50;99.90;;;;;;5072395;28;20209;-79
2023/04/13 11:48:31;;;;;;;1.40;1.30;;;9.50;99.90;;;;;;5071814;28;20217;-79
2023/04/13 11:51:00;;;;;;;1.23;1.20;;;9.50;99.90;;;;;;5072391;28;20212;-79
2023/04/13 11:53:35;;;;;;;1.33;1.30;;;9.60;99.90;;;;;;5071876;28;20217;-79
2023/04/13 11:56:03;;;;;;;2.17;1.55;;;9.50;99.90;;;;;;5072447;28;20216;-79
2023/04/13 11:58:32;;;;;;;1.60;1.00;;;9.40;99.90;;;;;;5071759;28;20283;-78
2023/04/13 12:01:07;;;;;;;1.45;1.35;;;9.40;99.90;;;;;;5072173;28;20209;-79
2023/04/13 12:03:39;;;;;;;2.13;1.60;;;9.40;99.90;;;;;;5072535;28;20211;-79
2023/04/13 12:06:27;;;;;;;0.90;0.90;;;9.40;99.90;;;;;;5072142;28;20209;-79
2023/04/13 12:09:00;;;;;;;1.45;1.33;;;9.40;99.90;;;;;;5071651;28;20205;-79
2023/04/13 12:11:38;;;;;;;0.90;0.90;;;9.30;99.90;;;;;;5071574;28;20260;-79
2023/04/13 12:14:21;;;;;;;1.40;1.30;;;9.30;99.90;;;;;;5071868;28;20639;-79
2023/04/13 12:17:11;;;;;;;1.40;1.30;;;9.20;99.90;;;;;;5071847;28;20261;-79
2023/04/13 12:20:00;;;;;;;1.35;1.25;;;9.00;99.90;;;;;;5075114;28;20212;-80
2023/04/13 12:22:37;;;;;;;1.00;1.00;;;9.00;99.90;;;;;;5075839;28;20229;-79
2023/04/13 12:25:23;;;;;;;2.47;1.17;;;9.00;99.90;;;;;;5075741;28;20236;-79
2023/04/13 12:28:00;;;;;;;1.15;1.15;;;9.00;99.90;;;;;;5075235;28;20210;-79
2023/04/13 12:30:32;;;;;;;1.92;1.13;;;8.90;99.90;;;;;;5076041;28;20201;-78
2023/04/13 12:33:01;;;;;;;1.20;1.20;;;8.90;99.90;;;;;;5074079;28;20229;-78
2023/04/13 12:35:29;;;;;;;1.15;1.13;;;8.90;99.90;;;;;;5075998;28;20217;-78
2023/04/13 12:37:59;;;;;;;0.88;0.88;;;9.00;99.90;;;;;;5075040;28;20211;-79
2023/04/13 12:40:28;;;;;;;0.75;0.68;;;9.00;99.90;;;;;;5075493;28;20332;-78
2023/04/13 12:42:56;;;;;;;0.60;0.60;;;9.10;99.90;;;;;;5075611;28;20235;-79
2023/04/13 12:45:25;;;;;;;0.60;0.60;;;9.10;99.90;;;;;;5075403;28;20205;-79
2023/04/13 12:47:56;;;;;;;0.80;0.80;;;9.10;99.90;;;;;;5075120;28;20256;-79
2023/04/13 12:50:25;;;;;;;0.75;0.75;;;9.10;99.90;;;;;;5075082;28;20215;-79
2023/04/13 12:52:53;;;;;;;1.15;1.10;;;9.10;99.90;;;;;;5074787;28;20227;-78
2023/04/13 12:55:22;;;;;;;1.13;1.02;;;9.00;99.90;;;;;;5075158;28;20209;-79
2023/04/13 12:57:51;;;;;;;1.45;1.13;;;9.00;99.90;;;;;;5074653;28;20209;-78
2023/04/13 13:00:21;;;;;;;1.15;1.05;;;9.00;99.90;;;;;;5075281;28;20213;-79
2023/04/13 13:02:50;;;;;;;1.25;0.80;;;9.00;99.90;;;;;;5075233;28;20251;-79
2023/04/13 13:05:33;;;;;;;0.68;0.68;;;9.00;99.90;;;;;;5075168;28;20205;-79
2023/04/13 13:08:01;;;;;;;2.13;1.52;;;9.20;99.90;;;;;;5074235;28;20216;-79
2023/04/13 13:10:30;;;;;;;2.03;0.98;;;9.20;99.90;;;;;;5075720;28;20217;-78
2023/04/13 13:13:03;;;;;;;0.75;0.75;;;9.40;99.90;;;;;;5074721;28;20229;-78